Time;durP1;ratioP1;P1;durP2;ratioP2;P2;SDS_P1;SDS_P2;PMS_P1;PMS_P2;Temp;Humidity;BMP_temperature;BMP_pressure;BME280_temperature;BME280_humidity;BME280_pressure;Samples;Min_cycle;Max_cycle;Signal;HPM_P1;HPM_P2
2022/05/18 00:02:00;;;;;;;7.33;3.50;;;;;;;20.06;63.75;96811.16;5091670;28;20196;-85
2022/05/18 00:04:27;;;;;;;9.47;4.20;;;;;;;20.36;64.87;96849.75;5092485;28;20204;-86
2022/05/18 00:06:55;;;;;;;4.73;3.13;;;;;;;20.12;64.63;96850.06;5073318;28;20228;-85
2022/05/18 00:09:22;;;;;;;4.00;2.40;;;;;;;19.65;65.51;96823.56;5091466;28;20200;-84
2022/05/18 00:11:50;;;;;;;6.07;2.67;;;;;;;19.47;68.63;96821.53;5074893;28;20200;-85
2022/05/18 00:14:19;;;;;;;2.80;2.27;;;;;;;18.97;69.61;96843.28;5093189;28;20196;-85
2022/05/18 00:16:46;;;;;;;3.37;2.27;;;;;;;18.47;72.25;96801.97;5093441;28;20592;-85
2022/05/18 00:19:13;;;;;;;6.67;2.30;;;;;;;18.04;71.86;96769.63;5093433;28;20203;-85
2022/05/18 00:21:42;;;;;;;4.47;1.97;;;;;;;18.30;71.38;96779.69;5074822;28;20278;-84
2022/05/18 00:24:10;;;;;;;2.70;2.30;;;;;;;18.49;72.07;96800.06;5092023;28;20195;-84
2022/05/18 00:26:41;;;;;;;2.50;1.97;;;;;;;18.68;72.70;96823.84;5091916;28;20217;-84
2022/05/18 00:29:09;;;;;;;6.87;2.20;;;;;;;18.60;72.08;96821.84;5073697;28;20274;-85
2022/05/18 00:31:36;;;;;;;2.03;1.90;;;;;;;18.49;70.24;96807.91;5091975;28;20985;-84
2022/05/18 00:34:04;;;;;;;3.13;2.00;;;;;;;18.43;69.90;96763.81;5092063;28;20229;-84
2022/05/18 00:36:33;;;;;;;2.17;1.97;;;;;;;18.49;71.15;96777.28;5105287;28;20213;-84
2022/05/18 00:39:00;;;;;;;2.20;2.00;;;;;;;18.35;69.81;96726.88;5090754;28;20187;-85
2022/05/18 00:41:29;;;;;;;2.83;2.20;;;;;;;18.44;69.36;96752.41;5090884;28;20191;-83
2022/05/18 00:43:56;;;;;;;2.40;2.20;;;;;;;18.46;69.32;96730.34;5104264;28;20190;-84
2022/05/18 00:46:23;;;;;;;2.43;2.17;;;;;;;18.80;68.00;96765.13;5108000;28;20230;-84
2022/05/18 00:48:52;;;;;;;2.10;1.90;;;;;;;18.98;67.26;96773.25;5109063;28;20194;-85
2022/05/18 00:51:44;;;;;;;2.90;1.90;;;;;;;18.97;66.19;96761.94;5098782;28;20561;-85
2022/05/18 00:54:25;;;;;;;1.67;1.57;;;;;;;18.90;65.54;96729.28;5092866;28;20191;-84
2022/05/18 00:57:16;;;;;;;2.47;1.73;;;;;;;19.10;66.64;96761.72;5092075;28;20596;-85
2022/05/18 00:59:51;;;;;;;2.60;1.67;;;;;;;18.86;67.78;96727.03;5075913;28;20218;-85
2022/05/18 01:02:20;;;;;;;2.03;1.77;;;;;;;18.87;67.76;96724.28;5078247;28;20659;-85
2022/05/18 01:04:51;;;;;;;1.40;1.30;;;;;;;18.72;68.22;96701.13;5095137;28;20237;-85
2022/05/18 01:07:26;;;;;;;1.60;1.37;;;;;;;18.68;68.74;96679.56;5096139;28;20697;-85
2022/05/18 01:09:54;;;;;;;1.80;1.70;;;;;;;18.26;69.55;96618.38;5093667;28;20226;-85
2022/05/18 01:12:22;;;;;;;1.77;1.67;;;;;;;18.48;70.21;96638.44;5092915;28;20195;-86
2022/05/18 01:14:49;;;;;;;1.40;1.20;;;;;;;18.61;68.87;96642.50;5074424;28;20199;-87
2022/05/18 01:17:20;;;;;;;2.13;1.60;;;;;;;18.64;67.88;96623.06;5094756;28;20239;-85
2022/05/18 01:19:53;;;;;;;1.40;1.30;;;;;;;18.81;67.22;96625.09;5076090;28;20203;-84
2022/05/18 01:22:26;;;;;;;1.70;1.60;;;;;;;19.13;67.69;96641.53;5093640;28;20550;-84
2022/05/18 01:25:15;;;;;;;2.00;1.73;;;;;;;19.31;68.54;96626.81;5093812;28;20288;-84
2022/05/18 01:27:45;;;;;;;1.80;1.70;;;;;;;19.64;70.03;96632.75;5076137;28;20222;-86
2022/05/18 01:30:13;;;;;;;1.60;1.50;;;;;;;19.77;70.04;96633.31;5094356;28;20295;-86
2022/05/18 01:32:47;;;;;;;1.97;1.63;;;;;;;19.66;69.72;96601.91;5093577;28;20269;-84
2022/05/18 01:35:18;;;;;;;1.97;1.77;;;;;;;19.89;70.53;96651.44;5072937;28;20201;-84
2022/05/18 01:37:46;;;;;;;1.80;1.57;;;;;;;19.85;70.82;96650.06;5094181;28;20192;-84
2022/05/18 01:40:23;;;;;;;1.70;1.60;;;;;;;19.81;70.10;96653.09;5071149;28;20729;-84
2022/05/18 01:42:59;;;;;;;3.40;1.70;;;;;;;19.66;71.08;96654.47;5074941;28;20223;-85
2022/05/18 01:45:29;;;;;;;2.20;1.90;;;;;;;19.30;71.16;96606.78;5073520;28;20663;-85
2022/05/18 01:48:07;;;;;;;3.37;1.80;;;;;;;19.60;70.99;96655.81;5089343;28;20192;-85
2022/05/18 01:50:35;;;;;;;2.27;1.80;;;;;;;19.46;70.49;96650.94;5089101;28;20189;-85
2022/05/18 01:53:06;;;;;;;2.20;2.00;;;;;;;19.47;70.71;96648.19;5071104;28;20191;-85
2022/05/18 01:55:34;;;;;;;2.37;1.80;;;;;;;19.40;71.04;96654.94;5071667;28;20257;-86
2022/05/18 01:58:02;;;;;;;2.00;1.90;;;;;;;19.28;71.86;96676.16;5090178;28;20184;-85
2022/05/18 02:00:31;;;;;;;2.47;1.80;;;;;;;19.36;72.43;96671.09;5074253;28;20231;-85
2022/05/18 02:02:59;;;;;;;2.10;1.90;;;;;;;19.12;72.72;96637.28;5090979;28;20200;-85
2022/05/18 02:05:27;;;;;;;2.53;1.90;;;;;;;19.14;72.22;96648.47;5089638;28;20683;-84
2022/05/18 02:07:57;;;;;;;3.70;2.13;;;;;;;19.03;73.17;96661.66;5088450;28;20212;-84
2022/05/18 02:10:25;;;;;;;2.43;2.10;;;;;;;19.06;75.06;96668.47;5089063;28;20573;-85
2022/05/18 02:12:52;;;;;;;3.53;2.20;;;;;;;18.77;74.34;96628.94;5088956;28;20202;-85
2022/05/18 02:15:23;;;;;;;2.30;2.10;;;;;;;18.93;73.67;96663.41;5088547;28;20744;-84
2022/05/18 02:17:51;;;;;;;3.07;2.17;;;;;;;18.84;72.98;96677.31;5072158;28;20191;-85
2022/05/18 02:20:19;;;;;;;3.00;2.17;;;;;;;18.62;72.24;96649.44;5054705;28;20230;-84
2022/05/18 02:22:47;;;;;;;2.17;1.97;;;;;;;18.77;72.30;96678.81;5089888;28;20218;-85
2022/05/18 02:25:16;;;;;;;2.40;2.00;;;;;;;18.36;72.91;96647.28;5089015;28;20235;-85
2022/05/18 02:27:45;;;;;;;3.20;2.37;;;;;;;18.46;73.69;96677.91;5088559;28;20318;-85
2022/05/18 02:30:14;;;;;;;3.37;3.07;;;;;;;18.50;74.45;96688.97;5071290;28;20200;-85
2022/05/18 02:32:41;;;;;;;5.77;3.30;;;;;;;18.57;74.16;96679.63;5092147;28;20249;-85
2022/05/18 02:35:10;;;;;;;3.20;2.90;;;;;;;18.74;72.79;96686.91;5091588;28;20196;-86
2022/05/18 02:37:40;;;;;;;8.40;3.27;;;;;;;18.80;72.08;96677.69;5072397;28;20257;-84
2022/05/18 02:40:10;;;;;;;3.07;2.67;;;;;;;18.87;71.53;96692.81;5092453;28;20222;-86
2022/05/18 02:42:37;;;;;;;3.37;2.63;;;;;;;18.85;71.38;96680.78;5073427;28;20203;-85
2022/05/18 02:45:05;;;;;;;4.77;2.87;;;;;;;18.70;70.81;96654.03;5093149;28;20188;-85
2022/05/18 02:47:38;;;;;;;2.90;2.60;;;;;;;18.79;71.11;96662.91;5094636;28;20652;-87
2022/05/18 02:50:06;;;;;;;3.47;2.70;;;;;;;19.04;70.68;96681.69;5092927;28;20687;-85
2022/05/18 02:52:35;;;;;;;4.43;2.97;;;;;;;18.95;70.83;96661.50;5076095;28;20250;-84
2022/05/18 02:57:54;;;;;;;3.07;2.80;;;;;;;18.59;71.99;96680.31;5075040;28;20196;-85
2022/05/18 03:00:23;;;;;;;3.67;3.00;;;;;;;18.62;72.38;96651.22;5074456;28;20747;-83
2022/05/18 03:02:52;;;;;;;3.33;2.90;;;;;;;18.94;71.38;96690.50;5095407;28;20199;-86
2022/05/18 03:05:21;;;;;;;4.77;3.20;;;;;;;18.75;72.08;96638.75;5080857;28;20195;-88
2022/05/18 03:07:49;;;;;;;3.63;3.33;;;;;;;18.82;71.75;96650.38;5095614;28;20311;-85
2022/05/18 03:10:19;;;;;;;3.97;3.10;;;;;;;18.82;71.08;96658.25;5075589;28;20184;-85
2022/05/18 03:12:46;;;;;;;3.50;3.20;;;;;;;18.87;71.92;96692.81;5076000;28;20192;-85
2022/05/18 03:15:13;;;;;;;6.00;3.57;;;;;;;18.96;72.76;96697.25;5093167;28;20220;-85
2022/05/18 03:17:41;;;;;;;3.90;3.50;;;;;;;19.01;72.46;96696.88;5044869;28;20728;-84
2022/05/18 03:23:33;;;;;;;4.00;3.60;;;;;;;18.70;73.52;96693.38;5112901;28;20192;-85
2022/05/18 03:25:42;;;;;;;3.97;3.67;;;;;;;17.79;75.41;96682.53;5111204;28;20618;-83
2022/05/18 03:28:09;;;;;;;3.97;3.57;;;;;;;17.93;75.36;96667.50;5100707;28;20229;-83
2022/05/18 03:30:36;;;;;;;4.57;3.77;;;;;;;18.02;74.83;96671.97;5113380;28;20198;-88
2022/05/18 03:33:03;;;;;;;5.60;3.63;;;;;;;18.17;74.88;96692.53;5116466;28;20196;-87
2022/05/18 03:35:31;;;;;;;5.10;3.60;;;;;;;18.42;74.04;96707.09;5116182;28;20865;-89
2022/05/18 03:38:00;;;;;;;4.53;3.67;;;;;;;18.22;74.66;96710.50;5116755;28;20228;-90
2022/05/18 03:40:28;;;;;;;4.97;3.50;;;;;;;17.64;74.49;96659.34;5091981;28;20198;-85
2022/05/18 03:42:55;;;;;;;5.27;3.77;;;;;;;18.17;73.62;96676.81;5090737;28;20192;-87
2022/05/18 03:45:23;;;;;;;6.93;3.93;;;;;;;18.70;71.90;96696.00;5081167;28;20202;-87
2022/05/18 03:47:51;;;;;;;4.77;3.73;;;;;;;18.93;70.76;96705.41;5096058;28;20309;-85
2022/05/18 03:50:18;;;;;;;4.67;3.50;;;;;;;19.19;69.42;96656.75;5075006;28;20582;-84
2022/05/18 03:52:49;;;;;;;4.80;3.60;;;;;;;20.12;67.25;96704.59;5076371;28;20196;-85
2022/05/18 03:55:16;;;;;;;3.57;2.80;;;;;;;20.14;65.13;96634.31;5095469;28;20214;-85
2022/05/18 03:57:44;;;;;;;6.20;2.93;;;;;;;19.71;65.93;96678.53;5080174;28;20193;-85
2022/05/18 04:00:12;;;;;;;3.00;2.80;;;;;;;19.44;66.73;96685.22;5061483;28;20201;-84
2022/05/18 04:02:42;;;;;;;5.83;3.27;;;;;;;19.99;66.33;96694.34;5115866;28;20210;-84
2022/05/18 04:05:12;;;;;;;2.73;2.53;;;;;;;20.09;65.08;96695.19;5102933;28;20213;-84
2022/05/18 04:07:39;;;;;;;5.03;2.70;;;;;;;20.23;65.17;96665.91;5099525;28;20213;-85
2022/05/18 04:10:09;;;;;;;2.83;2.53;;;;;;;20.31;64.63;96716.97;5080082;28;20230;-85
2022/05/18 04:12:37;;;;;;;3.73;2.97;;;;;;;20.35;65.19;96711.31;5093694;28;20193;-85
2022/05/18 04:15:07;;;;;;;2.87;2.67;;;;;;;20.87;64.11;96705.59;5089424;28;20287;-87
2022/05/18 04:17:35;;;;;;;5.33;3.27;;;;;;;21.33;63.38;96683.72;5090136;28;20284;-85
2022/05/18 04:20:04;;;;;;;3.83;3.10;;;;;;;22.03;60.61;96714.75;5091695;28;20183;-85
2022/05/18 04:22:32;;;;;;;4.40;3.20;;;;;;;22.29;59.82;96707.78;5058227;28;20252;-83
2022/05/18 04:25:03;;;;;;;6.10;3.97;;;;;;;22.40;59.27;96702.28;5089816;28;20709;-85
2022/05/18 04:27:31;;;;;;;5.90;3.47;;;;;;;22.75;59.33;96724.41;5090293;28;20215;-85
2022/05/18 04:29:58;;;;;;;9.33;3.60;;;;;;;22.65;60.04;96706.81;5091485;28;20868;-85
2022/05/18 04:32:29;;;;;;;7.03;4.83;;;;;;;22.30;59.58;96693.59;5073087;28;20191;-85
2022/05/18 04:34:58;;;;;;;7.60;4.37;;;;;;;22.40;59.84;96731.31;5092173;28;20200;-84
2022/05/18 04:37:25;;;;;;;3.77;3.40;;;;;;;22.28;60.12;96708.75;5076900;28;20181;-85
2022/05/18 04:39:53;;;;;;;6.63;3.47;;;;;;;22.58;60.06;96745.41;5073233;28;20196;-85
2022/05/18 04:42:22;;;;;;;7.87;4.40;;;;;;;22.60;60.19;96735.50;5073268;28;20207;-85
2022/05/18 04:44:51;;;;;;;5.67;3.93;;;;;;;22.82;59.61;96734.19;5072849;28;20192;-86
2022/05/18 04:47:25;;;;;;;8.73;3.50;;;;;;;22.83;60.25;96753.50;5091106;28;20210;-85
2022/05/18 04:49:53;;;;;;;9.03;4.20;;;;;;;22.63;60.27;96731.72;5073609;28;20201;-85
2022/05/18 04:52:49;;;;;;;9.27;3.93;;;;;;;23.00;60.13;96755.31;5072216;28;20457;-86
2022/05/18 04:55:45;;;;;;;10.00;3.27;;;;;;;23.00;59.40;96756.13;5074100;28;20197;-85
2022/05/18 04:58:18;;;;;;;4.93;3.20;;;;;;;22.98;59.18;96744.88;5091383;28;20283;-85
2022/05/18 05:01:00;;;;;;;4.00;3.50;;;;;;;22.60;59.78;96717.03;5093052;28;20197;-85
2022/05/18 05:03:31;;;;;;;5.33;2.93;;;;;;;22.92;59.08;96766.63;5090927;28;20216;-85
2022/05/18 05:06:10;;;;;;;7.07;4.00;;;;;;;23.25;58.51;96754.50;5084581;28;20736;-88
2022/05/18 05:08:37;;;;;;;4.47;3.07;;;;;;;23.51;57.29;96742.16;5077145;28;20222;-87
2022/05/18 05:11:06;;;;;;;8.30;3.23;;;;;;;23.50;57.98;96739.63;5112417;28;20198;-87
2022/05/18 05:13:39;;;;;;;6.63;3.57;;;;;;;23.12;58.19;96730.31;5094503;28;20207;-86
2022/05/18 05:16:10;;;;;;;6.87;2.80;;;;;;;22.92;57.45;96749.94;5091750;28;20197;-87
2022/05/18 05:18:41;;;;;;;5.47;2.97;;;;;;;22.78;57.57;96753.13;5108555;28;20247;-87
2022/05/18 05:21:13;;;;;;;2.70;2.07;;;;;;;22.57;56.10;96719.94;5101692;28;20193;-86
2022/05/18 05:23:43;;;;;;;2.80;2.57;;;;;;;22.36;57.51;96729.94;5080598;28;20626;-86
2022/05/18 05:26:10;;;;;;;3.43;2.60;;;;;;;22.10;59.06;96741.38;5098618;28;20230;-85
2022/05/18 05:28:38;;;;;;;4.10;2.90;;;;;;;21.48;60.18;96723.59;5066888;28;20238;-85
2022/05/18 05:31:11;;;;;;;5.57;3.43;;;;;;;21.36;57.82;96738.78;5082644;28;20203;-86
2022/05/18 05:33:41;;;;;;;4.70;4.00;;;;;;;20.95;58.50;96744.38;5062578;28;20199;-85
2022/05/18 05:36:09;;;;;;;5.97;4.33;;;;;;;20.89;58.24;96758.13;5096059;28;20194;-84
2022/05/18 05:38:37;;;;;;;5.57;4.07;;;;;;;20.81;59.36;96756.16;5077283;28;20686;-85
2022/05/18 05:41:48;;;;;;;6.90;4.30;;;;;;;20.65;59.96;96761.16;5096949;28;20189;-86
2022/05/18 05:44:42;;;;;;;5.77;3.87;;;;;;;20.63;59.91;96762.28;5079197;28;20201;-85
2022/05/18 05:47:11;;;;;;;6.60;4.40;;;;;;;20.77;59.93;96761.88;5067996;28;20269;-85
2022/05/18 05:50:37;;;;;;;8.27;4.97;;;;;;;20.73;59.67;96763.13;5064927;28;20290;-86
2022/05/18 05:53:07;;;;;;;6.83;4.73;;;;;;;21.32;58.29;96770.81;5096067;28;20189;-85
2022/05/18 05:56:38;;;;;;;5.87;4.97;;;;;;;21.49;57.29;96778.00;5097937;28;20197;-89
2022/05/18 06:00:09;;;;;;;5.73;4.23;;;;;;;21.36;58.05;96765.13;5091876;28;20207;-85
2022/05/18 06:03:50;;;;;;;5.93;3.90;;;;;;;21.36;58.15;96765.13;5069859;28;20208;-85
2022/05/18 06:10:12;;;;;;;4.30;3.90;;;;;;;21.53;57.65;96779.34;5080497;28;20194;-86
2022/05/18 06:12:39;;;;;;;4.37;3.70;;;;;;;21.49;57.68;96784.09;5092329;28;20190;-86
2022/05/18 06:15:11;;;;;;;4.87;3.73;;;;;;;21.72;57.26;96784.56;5074284;28;20596;-85
2022/05/18 06:17:38;;;;;;;6.40;4.00;;;;;;;21.70;57.57;96787.34;5072643;28;20208;-86
2022/05/18 06:20:10;;;;;;;7.67;4.13;;;;;;;21.57;58.03;96786.00;5076225;28;20281;-86
2022/05/18 06:22:41;;;;;;;4.20;3.80;;;;;;;21.50;57.89;96761.19;5095190;28;20711;-85
2022/05/18 06:25:12;;;;;;;4.73;3.90;;;;;;;21.55;58.39;96794.06;5094849;28;20306;-85
2022/05/18 06:27:42;;;;;;;5.80;4.30;;;;;;;21.58;59.01;96782.38;5088889;28;20227;-84
2022/05/18 06:30:14;;;;;;;4.20;3.80;;;;;;;21.17;59.22;96764.31;5079272;28;20261;-85
2022/05/18 06:32:43;;;;;;;4.73;4.10;;;;;;;21.14;59.77;96754.09;5079675;28;20199;-85
2022/05/18 06:35:10;;;;;;;5.10;4.47;;;;;;;20.83;60.47;96742.88;5098516;28;20193;-84
2022/05/18 06:37:43;;;;;;;4.27;3.87;;;;;;;21.08;59.95;96780.00;5083296;28;20185;-87
2022/05/18 06:43:40;;;;;;;6.13;3.73;;;;;;;20.86;61.09;96767.13;5097244;28;20193;-86
2022/05/18 06:46:08;;;;;;;4.27;3.53;;;;;;;20.98;61.13;96787.06;5096800;28;20334;-86
2022/05/18 06:48:35;;;;;;;5.77;3.97;;;;;;;20.75;62.51;96783.03;5096813;28;20221;-86
2022/05/18 06:51:17;;;;;;;3.73;2.73;;;;;;;20.70;61.44;96787.06;5081302;28;20207;-86
2022/05/18 06:53:51;;;;;;;4.00;3.50;;;;;;;20.49;63.03;96737.19;5099788;28;20184;-86
2022/05/18 06:56:26;;;;;;;4.33;3.30;;;;;;;20.93;63.16;96789.28;5101321;28;20185;-85
2022/05/18 06:58:54;;;;;;;4.13;3.37;;;;;;;20.82;62.88;96771.00;5101118;28;20244;-86
2022/05/18 07:01:23;;;;;;;3.27;2.97;;;;;;;21.12;62.55;96803.44;5084229;28;20266;-85
2022/05/18 07:03:51;;;;;;;3.50;2.53;;;;;;;21.01;62.10;96799.94;5101024;28;20189;-85
2022/05/18 07:06:30;;;;;;;3.20;2.90;;;;;;;21.06;62.45;96818.81;5063505;28;20188;-86
2022/05/18 07:09:01;;;;;;;3.87;3.00;;;;;;;20.88;63.63;96815.19;5081404;28;20237;-88
2022/05/18 07:11:31;;;;;;;4.10;2.90;;;;;;;20.12;65.46;96731.75;5083652;28;20211;-86
2022/05/18 07:14:01;;;;;;;4.00;3.60;;;;;;;20.32;66.96;96790.47;5103174;28;20686;-85
2022/05/18 07:16:29;;;;;;;3.53;3.03;;;;;;;20.24;67.48;96806.94;5099706;28;20250;-85
2022/05/18 07:19:00;;;;;;;3.00;2.70;;;;;;;20.36;68.70;96830.53;5099524;28;20189;-84
2022/05/18 07:21:27;;;;;;;5.27;3.10;;;;;;;20.27;66.66;96840.03;5103638;28;20190;-85
2022/05/18 07:23:58;;;;;;;3.20;2.60;;;;;;;20.09;65.53;96803.00;5090094;28;20185;-84
2022/05/18 07:26:28;;;;;;;2.83;2.40;;;;;;;20.30;65.34;96821.34;5084196;28;20189;-85
2022/05/18 07:28:57;;;;;;;2.73;2.30;;;;;;;20.39;65.14;96846.00;5101766;28;20216;-85
2022/05/18 07:32:08;;;;;;;2.80;2.53;;;;;;;19.94;67.10;96803.50;5103050;28;20189;-85
2022/05/18 07:35:16;;;;;;;3.10;2.80;;;;;;;20.03;66.61;96837.69;5115520;28;20304;-85
2022/05/18 07:37:49;;;;;;;3.87;3.13;;;;;;;19.72;66.69;96804.50;5113853;28;20169;-86
2022/05/18 07:40:18;;;;;;;3.50;3.20;;;;;;;19.68;66.69;96789.97;5116341;28;20203;-85
2022/05/18 07:42:48;;;;;;;3.43;3.13;;;;;;;20.13;67.93;96830.69;5114855;28;21230;-86
2022/05/18 07:45:19;;;;;;;3.80;3.50;;;;;;;20.03;67.16;96821.13;5118184;28;20235;-87
2022/05/18 07:47:53;;;;;;;4.23;3.83;;;;;;;20.18;68.56;96844.28;5117277;28;20279;-85
2022/05/18 07:50:23;;;;;;;3.70;3.13;;;;;;;19.91;67.15;96849.28;5117656;28;20197;-84
2022/05/18 07:52:59;;;;;;;4.37;3.10;;;;;;;19.80;67.19;96853.81;5066888;28;20200;-85
2022/05/18 07:55:28;;;;;;;3.97;3.57;;;;;;;19.92;67.99;96860.63;5115790;28;20207;-86
2022/05/18 07:57:56;;;;;;;3.20;3.00;;;;;;;19.86;69.27;96855.91;5098923;28;20218;-86
2022/05/18 08:00:24;;;;;;;5.37;3.43;;;;;;;20.05;69.34;96861.25;5117309;28;20168;-85
2022/05/18 08:02:52;;;;;;;4.00;2.80;;;;;;;20.02;67.19;96835.22;5097489;28;20195;-86
2022/05/18 08:05:21;;;;;;;3.77;3.37;;;;;;;20.21;66.26;96856.34;5098056;28;20188;-85
2022/05/18 08:07:48;;;;;;;3.87;3.30;;;;;;;19.83;65.87;96806.22;5115057;28;20228;-85
2022/05/18 08:15:53;;;;;;;6.50;3.60;;;;;;;20.25;65.18;96858.59;5092866;28;20207;-86
2022/05/18 08:18:24;;;;;;;4.10;3.40;;;;;;;20.24;65.16;96845.56;5098882;28;20168;-86
2022/05/18 08:20:56;;;;;;;4.77;3.50;;;;;;;20.35;65.52;96865.66;5099265;28;20164;-85
2022/05/18 08:23:25;;;;;;;5.70;3.80;;;;;;;20.06;65.01;96789.28;5114928;28;20223;-86
2022/05/18 08:26:03;;;;;;;6.53;3.57;;;;;;;20.67;64.20;96868.94;5100807;28;20253;-84
2022/05/18 08:28:34;;;;;;;7.93;3.70;;;;;;;20.67;63.70;96867.13;5098385;28;20248;-85
2022/05/18 08:31:03;;;;;;;5.77;3.53;;;;;;;20.69;63.93;96867.81;5081840;28;20184;-86
2022/05/18 08:33:34;;;;;;;5.40;3.10;;;;;;;20.75;63.03;96874.34;5097958;28;20194;-85
2022/05/18 08:36:07;;;;;;;6.93;3.20;;;;;;;20.69;62.92;96872.28;5095588;28;20268;-86
2022/05/18 08:38:37;;;;;;;3.60;2.57;;;;;;;20.49;63.33;96858.22;5097038;28;20192;-86
2022/05/18 08:41:17;;;;;;;4.17;2.70;;;;;;;20.31;63.66;96859.84;5098300;28;20197;-85
2022/05/18 08:43:50;;;;;;;5.70;2.90;;;;;;;20.41;64.82;96884.38;5114897;28;20221;-86
2022/05/18 08:46:49;;;;;;;4.20;2.97;;;;;;;20.09;65.74;96904.72;5095766;28;20249;-85
2022/05/18 08:49:54;;;;;;;1.97;1.60;;;;;;;19.91;65.04;96911.53;5097924;28;20252;-85
2022/05/18 08:52:59;;;;;;;2.27;1.20;;;;;;;19.79;65.23;96912.56;5115763;28;20175;-85
2022/05/18 08:56:08;;;;;;;1.00;0.80;;;;;;;19.60;65.04;96920.34;5097408;28;20192;-85
2022/05/18 08:58:46;;;;;;;2.17;0.90;;;;;;;19.63;65.22;96926.19;5099855;28;20252;-85
2022/05/18 09:01:21;;;;;;;0.70;0.70;;;;;;;19.46;64.27;96922.31;5096430;28;20200;-85
2022/05/18 09:04:07;;;;;;;2.30;0.80;;;;;;;19.53;63.87;96927.06;5114682;28;20242;-85
2022/05/18 09:07:00;;;;;;;2.30;0.83;;;;;;;19.38;63.81;96935.25;5113358;28;20254;-86
2022/05/18 09:12:29;;;;;;;1.70;0.70;;;;;;;18.65;64.85;96900.16;5115255;28;20219;-86
2022/05/18 09:14:57;;;;;;;0.57;0.57;;;;;;;19.14;63.37;96953.00;5115811;28;20216;-88
2022/05/18 09:17:52;;;;;;;0.50;0.50;;;;;;;18.74;63.90;96938.78;5115539;28;20180;-86
2022/05/18 09:20:43;;;;;;;1.20;0.63;;;;;;;18.58;64.18;96936.56;5098409;28;20179;-86
2022/05/18 09:23:54;;;;;;;1.30;0.50;;;;;;;18.33;63.79;96943.81;5096158;28;20176;-86
2022/05/18 09:27:06;;;;;;;1.00;0.70;;;;;;;18.09;64.63;96956.19;5115204;28;20188;-85
2022/05/18 09:30:01;;;;;;;1.27;0.50;;;;;;;17.86;65.77;96979.75;5113541;28;20224;-85
2022/05/18 09:32:58;;;;;;;1.10;0.50;;;;;;;17.57;65.71;96954.91;5112369;28;20193;-85
2022/05/18 09:35:46;;;;;;;1.60;0.60;;;;;;;18.05;64.56;97001.94;5089857;28;20262;-85
2022/05/18 09:38:33;;;;;;;0.40;0.40;;;;;;;17.57;63.93;96954.06;5103752;28;20212;-86
2022/05/18 09:41:07;;;;;;;3.03;0.53;;;;;;;17.69;64.11;96988.03;5114815;28;20182;-86
2022/05/18 09:43:53;;;;;;;0.67;0.67;;;;;;;17.53;64.57;96979.66;5113617;28;20209;-86
2022/05/18 09:46:26;;;;;;;0.50;0.50;;;;;;;17.40;63.65;97019.91;5096697;28;20225;-86
2022/05/18 09:49:10;;;;;;;1.20;0.60;;;;;;;16.35;66.36;96992.56;5077805;28;20244;-85
2022/05/18 09:51:38;;;;;;;1.77;0.60;;;;;;;16.32;67.65;96965.81;5113387;28;20189;-90
2022/05/18 09:54:07;;;;;;;1.23;0.70;;;;;;;16.60;66.56;96981.25;5117229;28;20260;-90
2022/05/18 09:56:44;;;;;;;1.37;1.17;;;;;;;16.76;65.99;96987.06;5118330;28;20215;-85
2022/05/18 09:59:20;;;;;;;0.50;0.50;;;;;;;16.79;64.70;96960.72;5112914;28;20172;-87
2022/05/18 10:07:32;;;;;;;0.73;0.73;;;;;;;16.75;62.42;96986.25;5117756;28;20206;-85
2022/05/18 10:10:28;;;;;;;1.90;1.10;;;;;;;17.24;61.82;97028.06;5082705;28;20200;-85
2022/05/18 10:12:58;;;;;;;1.53;1.07;;;;;;;17.48;61.32;97028.03;5099293;28;20208;-89
2022/05/18 10:15:33;;;;;;;3.03;0.80;;;;;;;17.30;62.00;97032.00;5117389;28;20296;-86
2022/05/18 10:18:14;;;;;;;0.50;0.50;;;;;;;17.16;61.58;97050.47;5100130;28;20257;-91
2022/05/18 10:20:43;;;;;;;2.10;0.80;;;;;;;17.02;60.44;97051.47;5081656;28;20656;-85
2022/05/18 10:23:36;;;;;;;0.67;0.67;;;;;;;16.50;61.44;97058.69;5116365;28;20214;-88
2022/05/18 10:26:11;;;;;;;0.50;0.50;;;;;;;16.33;62.38;97038.88;5118644;28;20281;-85
2022/05/18 10:28:43;;;;;;;1.33;0.60;;;;;;;16.21;62.08;97052.78;5116981;28;20217;-86
2022/05/18 10:31:35;;;;;;;1.27;0.50;;;;;;;16.16;63.28;97070.53;5076285;28;20194;-86
2022/05/18 10:34:24;;;;;;;3.13;0.70;;;;;;;16.29;62.49;97103.59;5117317;28;20248;-86
2022/05/18 10:37:02;;;;;;;1.57;0.70;;;;;;;15.95;63.40;97057.16;5119697;28;20180;-85
2022/05/18 10:39:36;;;;;;;0.97;0.57;;;;;;;15.76;64.24;97090.66;5099371;28;20180;-84
2022/05/18 10:42:30;;;;;;;0.50;0.50;;;;;;;15.86;64.33;97083.91;5101520;28;20188;-89
2022/05/18 10:45:01;;;;;;;0.60;0.60;;;;;;;16.15;64.58;97085.41;5118548;28;20185;-88
2022/05/18 10:47:38;;;;;;;1.10;0.70;;;;;;;16.45;63.77;97055.50;5102405;28;20191;-88
2022/05/18 10:50:39;;;;;;;0.83;0.70;;;;;;;16.84;62.71;97089.38;5101551;28;20275;-89
2022/05/18 10:53:15;;;;;;;1.20;0.80;;;;;;;16.70;64.21;97092.97;5118414;28;20210;-88
2022/05/18 10:55:58;;;;;;;3.63;1.00;;;;;;;17.14;62.33;97095.09;5118794;28;20165;-85
2022/05/18 10:58:43;;;;;;;0.80;0.80;;;;;;;16.55;62.88;97069.66;5118299;28;20245;-85
2022/05/18 11:01:22;;;;;;;0.80;0.80;;;;;;;16.84;62.58;97129.47;5099023;28;20181;-85
2022/05/18 11:03:59;;;;;;;0.80;0.80;;;;;;;16.02;64.48;97126.34;5094112;28;20203;-85
2022/05/18 11:06:37;;;;;;;1.73;0.90;;;;;;;16.30;64.40;97123.56;5114565;28;20249;-86
2022/05/18 11:09:19;;;;;;;2.10;0.87;;;;;;;16.16;63.10;97139.31;5098569;28;20203;-86
2022/05/18 11:11:58;;;;;;;1.50;0.90;;;;;;;15.19;66.32;97091.75;5114058;28;20196;-86
2022/05/18 11:14:38;;;;;;;1.07;0.97;;;;;;;15.47;65.46;97128.25;5097948;28;20199;-89
2022/05/18 11:17:13;;;;;;;0.60;0.60;;;;;;;15.41;65.48;97131.22;5094967;28;20188;-87
2022/05/18 11:19:52;;;;;;;1.67;0.70;;;;;;;15.05;64.13;97146.53;5114413;28;20183;-87
2022/05/18 11:22:39;;;;;;;0.60;0.60;;;;;;;14.74;65.23;97151.94;5098457;28;20192;-95
2022/05/18 11:25:29;;;;;;;1.10;0.80;;;;;;;14.62;65.19;97157.00;5112809;28;20243;-87
2022/05/18 11:28:33;;;;;;;1.07;0.60;;;;;;;14.89;64.60;97140.59;5098444;28;20207;-87
2022/05/18 11:31:22;;;;;;;0.87;0.80;;;;;;;14.73;64.01;97137.25;5112457;28;20216;-86
2022/05/18 11:34:17;;;;;;;0.77;0.77;;;;;;;14.61;64.30;97137.06;5114896;28;20187;-86
2022/05/18 11:37:13;;;;;;;0.60;0.60;;;;;;;14.31;64.73;97154.53;5115789;28;20184;-93
2022/05/18 11:39:52;;;;;;;2.83;1.10;;;;;;;14.50;64.36;97162.09;5116105;28;20209;-87
2022/05/18 11:42:51;;;;;;;1.43;0.83;;;;;;;14.30;65.23;97171.06;5114349;28;20570;-90
2022/05/18 11:45:49;;;;;;;0.60;0.60;;;;;;;14.26;65.16;97192.97;5114967;28;20179;-90
2022/05/18 11:48:42;;;;;;;1.90;1.03;;;;;;;13.67;67.01;97209.41;5095744;28;20193;-92
2022/05/18 11:51:18;;;;;;;1.80;0.80;;;;;;;13.52;67.10;97223.25;5118324;27;20194;-86
2022/05/18 11:54:15;;;;;;;1.30;0.70;;;;;;;13.61;67.26;97240.13;5099513;28;20200;-85
2022/05/18 11:57:01;;;;;;;0.93;0.80;;;;;;;14.01;66.03;97244.81;5116855;28;20203;-86
2022/05/18 11:59:45;;;;;;;1.57;0.67;;;;;;;13.81;64.98;97264.13;5117405;28;20244;-86
2022/05/18 12:02:48;;;;;;;1.07;0.97;;;;;;;13.16;65.78;97268.59;5116742;28;20195;-89
2022/05/18 12:05:34;;;;;;;0.70;0.70;;;;;;;13.00;66.72;97325.72;5097831;28;20199;-88
2022/05/18 12:08:29;;;;;;;0.67;0.67;;;;;;;12.75;67.25;97315.72;5079322;28;20226;-85
2022/05/18 12:11:02;;;;;;;2.57;0.70;;;;;;;12.88;67.44;97306.34;5116184;28;20198;-85
2022/05/18 12:13:57;;;;;;;0.73;0.73;;;;;;;13.08;65.75;97308.81;5115674;28;20247;-87
2022/05/18 12:16:54;;;;;;;0.90;0.70;;;;;;;13.31;65.09;97322.41;5112482;28;20204;-86
2022/05/18 12:20:07;;;;;;;0.60;0.60;;;;;;;13.49;64.08;97324.03;5087965;28;20199;-87
2022/05/18 12:22:45;;;;;;;0.50;0.50;;;;;;;13.59;63.79;97309.63;5098595;28;20182;-87
2022/05/18 12:25:18;;;;;;;0.70;0.70;;;;;;;13.70;63.64;97325.50;5115929;28;20287;-86
2022/05/18 12:27:47;;;;;;;0.90;0.90;;;;;;;13.55;64.82;97334.97;5097999;28;20195;-87
2022/05/18 12:30:18;;;;;;;0.70;0.70;;;;;;;13.35;64.88;97339.53;5082609;28;20223;-87
2022/05/18 12:32:49;;;;;;;0.80;0.80;;;;;;;13.43;65.02;97347.78;5083227;28;20171;-86
2022/05/18 12:35:39;;;;;;;0.80;0.80;;;;;;;13.23;64.75;97345.38;5118772;28;20240;-89
2022/05/18 12:38:12;;;;;;;0.83;0.80;;;;;;;12.87;65.57;97353.22;5098791;28;20188;-89
2022/05/18 12:41:02;;;;;;;1.63;0.70;;;;;;;12.65;66.01;97345.63;5117710;28;20187;-87
2022/05/18 12:43:39;;;;;;;0.70;0.70;;;;;;;12.60;66.75;97371.03;5100384;28;20246;-89